Time;durP1;ratioP1;P1;durP2;ratioP2;P2;SDS_P1;SDS_P2;PMS_P1;PMS_P2;Temp;Humidity;BMP_temperature;BMP_pressure;BME280_temperature;BME280_humidity;BME280_pressure;Samples;Min_cycle;Max_cycle;Signal;HPM_P1;HPM_P2
2021/12/02 00:01:28;;;;;;;6.45;3.55;;;2.60;99.90;;;;;;5070699;28;20187;-78
2021/12/02 00:03:55;;;;;;;5.93;3.63;;;2.70;99.90;;;;;;5070584;28;20181;-78
2021/12/02 00:06:22;;;;;;;6.80;4.40;;;2.70;99.90;;;;;;5069344;28;20200;-78
2021/12/02 00:08:49;;;;;;;7.78;3.47;;;2.70;99.90;;;;;;5069256;28;20206;-78
2021/12/02 00:11:16;;;;;;;7.18;3.72;;;2.80;99.90;;;;;;5069851;28;20180;-78
2021/12/02 00:21:22;;;;;;;8.73;3.05;;;2.80;99.90;;;;;;5070324;28;20507;-78
2021/12/02 00:24:07;;;;;;;7.05;3.63;;;2.90;99.90;;;;;;5068918;28;20176;-78
2021/12/02 00:26:36;;;;;;;7.35;2.97;;;2.90;99.90;;;;;;5068779;28;20187;-78
2021/12/02 00:29:05;;;;;;;4.68;2.50;;;3.00;99.90;;;;;;5069762;28;20204;-78
2021/12/02 00:31:35;;;;;;;6.20;3.03;;;3.00;99.90;;;;;;5070005;28;20153;-78
2021/12/02 00:34:06;;;;;;;5.03;2.53;;;2.90;99.90;;;;;;5070085;28;20157;-78
2021/12/02 00:36:33;;;;;;;3.83;2.55;;;2.80;99.90;;;;;;5069952;28;20188;-78
2021/12/02 00:39:05;;;;;;;6.60;2.75;;;2.80;99.90;;;;;;5055106;28;20196;-78
2021/12/02 00:41:31;;;;;;;5.40;2.83;;;2.80;99.90;;;;;;5069783;28;20583;-78
2021/12/02 00:43:59;;;;;;;7.55;4.03;;;2.80;99.90;;;;;;5069151;28;20210;-77
2021/12/02 00:46:30;;;;;;;5.57;3.70;;;2.70;99.90;;;;;;5069781;28;20204;-78
2021/12/02 00:49:01;;;;;;;6.25;3.72;;;2.70;99.90;;;;;;5069713;28;20238;-77
2021/12/02 00:51:27;;;;;;;4.93;3.60;;;2.70;99.90;;;;;;5069654;28;20164;-78
2021/12/02 00:53:55;;;;;;;15.60;3.85;;;2.80;99.90;;;;;;5068253;28;20208;-78
2021/12/02 00:56:23;;;;;;;5.43;3.33;;;2.80;99.90;;;;;;5063997;28;20199;-78
2021/12/02 00:58:50;;;;;;;5.93;3.55;;;2.90;99.90;;;;;;5051500;28;20200;-77
2021/12/02 01:01:19;;;;;;;7.93;2.72;;;3.10;99.90;;;;;;5056899;28;20180;-78
2021/12/02 01:03:48;;;;;;;6.07;3.33;;;3.20;99.90;;;;;;5069432;28;20299;-77
2021/12/02 01:06:14;;;;;;;6.43;3.72;;;3.20;99.90;;;;;;5067961;28;20172;-77
2021/12/02 01:08:40;;;;;;;5.95;2.80;;;3.30;99.90;;;;;;5069373;28;20188;-78
2021/12/02 01:11:09;;;;;;;5.40;2.85;;;3.40;99.90;;;;;;5068085;28;20168;-78
2021/12/02 01:13:35;;;;;;;3.95;2.55;;;3.40;99.90;;;;;;5067943;28;20172;-78
2021/12/02 01:16:01;;;;;;;3.67;2.55;;;3.50;99.90;;;;;;5069225;28;20192;-78
2021/12/02 01:18:27;;;;;;;7.88;3.28;;;3.50;99.90;;;;;;5067885;28;20213;-78
2021/12/02 01:20:55;;;;;;;3.42;2.53;;;3.60;99.90;;;;;;5069195;28;20184;-78
2021/12/02 01:23:23;;;;;;;2.58;2.13;;;3.40;99.90;;;;;;5067872;28;20177;-78
2021/12/02 01:25:59;;;;;;;5.53;2.67;;;3.40;99.90;;;;;;5069082;28;20161;-78
2021/12/02 01:28:25;;;;;;;4.78;2.42;;;3.40;99.90;;;;;;5067669;28;20204;-78
2021/12/02 01:30:54;;;;;;;5.22;2.53;;;3.40;99.90;;;;;;5069084;28;20157;-78
2021/12/02 01:33:21;;;;;;;5.55;2.78;;;3.50;99.90;;;;;;5069038;28;20187;-78
2021/12/02 01:35:57;;;;;;;5.53;2.85;;;3.50;99.90;;;;;;5067413;28;20210;-78
2021/12/02 01:38:25;;;;;;;4.32;2.75;;;3.50;99.90;;;;;;5068873;28;20153;-78
2021/12/02 01:40:51;;;;;;;3.22;2.25;;;3.50;99.90;;;;;;5068878;28;20535;-78
2021/12/02 01:43:20;;;;;;;4.63;2.95;;;3.40;99.90;;;;;;5050980;28;20177;-78
2021/12/02 01:45:46;;;;;;;6.05;3.10;;;3.30;99.90;;;;;;5050958;28;20196;-78
2021/12/02 01:48:24;;;;;;;5.22;2.38;;;3.40;99.90;;;;;;5050926;28;20653;-78
2021/12/02 01:51:05;;;;;;;4.57;3.22;;;3.40;99.90;;;;;;5050954;28;20248;-78
2021/12/02 01:53:35;;;;;;;6.40;2.95;;;3.40;99.90;;;;;;5050761;28;20168;-78
2021/12/02 01:56:13;;;;;;;4.57;2.50;;;3.40;99.90;;;;;;5051459;28;20208;-78
2021/12/02 01:58:50;;;;;;;6.10;3.47;;;3.30;99.90;;;;;;5055093;28;20199;-78
2021/12/02 02:01:22;;;;;;;5.80;2.97;;;3.20;99.90;;;;;;5073096;28;20167;-78
2021/12/02 02:03:54;;;;;;;7.68;3.55;;;3.20;99.90;;;;;;5072779;28;20153;-78
2021/12/02 02:06:28;;;;;;;5.28;3.08;;;3.20;99.90;;;;;;5054947;28;20319;-78
2021/12/02 02:08:59;;;;;;;8.25;4.25;;;3.10;99.90;;;;;;5054759;28;20160;-78
2021/12/02 02:11:30;;;;;;;11.93;5.57;;;3.10;99.90;;;;;;5072821;28;20164;-77
2021/12/02 02:13:58;;;;;;;9.77;3.97;;;3.10;99.90;;;;;;5053553;28;20290;-77
2021/12/02 02:16:25;;;;;;;7.57;3.85;;;3.10;99.90;;;;;;5054385;28;20192;-77
2021/12/02 02:18:51;;;;;;;7.15;3.47;;;3.00;99.90;;;;;;5072472;28;20253;-77
2021/12/02 02:21:20;;;;;;;3.95;3.38;;;3.00;99.90;;;;;;5054291;28;20219;-77
2021/12/02 02:23:57;;;;;;;7.28;2.85;;;3.00;99.90;;;;;;5072059;28;20249;-77
2021/12/02 02:26:33;;;;;;;4.88;3.15;;;3.00;99.90;;;;;;5054395;28;20176;-77
2021/12/02 02:28:59;;;;;;;7.13;2.97;;;3.00;99.90;;;;;;5072377;28;20495;-77
2021/12/02 02:31:27;;;;;;;4.38;3.50;;;3.00;99.90;;;;;;5072267;28;20172;-77
2021/12/02 02:33:53;;;;;;;6.60;3.40;;;3.10;99.90;;;;;;5072290;28;20161;-77
2021/12/02 02:36:23;;;;;;;7.57;2.78;;;3.20;99.90;;;;;;5072185;28;20201;-77
2021/12/02 02:38:56;;;;;;;8.43;3.92;;;3.30;99.90;;;;;;5072415;28;20164;-77
2021/12/02 02:41:24;;;;;;;4.35;2.90;;;3.40;99.90;;;;;;5072278;28;20157;-77
2021/12/02 02:43:53;;;;;;;9.50;3.20;;;3.40;99.90;;;;;;5054247;28;20168;-77
2021/12/02 02:46:39;;;;;;;9.15;3.40;;;3.50;99.90;;;;;;5054205;28;20177;-77
2021/12/02 02:49:12;;;;;;;6.85;3.95;;;3.60;99.90;;;;;;5071368;28;20200;-77
2021/12/02 02:51:40;;;;;;;4.93;2.70;;;3.50;99.90;;;;;;5072015;28;20175;-77
2021/12/02 02:54:09;;;;;;;5.72;3.15;;;3.50;99.90;;;;;;5054074;28;20173;-77
2021/12/02 02:56:43;;;;;;;7.10;3.20;;;3.60;99.90;;;;;;5071472;28;20193;-77
2021/12/02 02:59:20;;;;;;;4.20;3.05;;;3.50;99.90;;;;;;5053827;28;20192;-77
2021/12/02 03:02:02;;;;;;;4.60;2.97;;;3.60;99.90;;;;;;5071805;28;20152;-78
2021/12/02 03:07:04;;;;;;;6.90;3.35;;;3.50;99.90;;;;;;5071298;28;20165;-77
2021/12/02 03:12:07;;;;;;;6.15;3.40;;;3.60;99.90;;;;;;5071748;28;20192;-77
2021/12/02 03:17:22;;;;;;;5.82;3.05;;;3.60;99.90;;;;;;5029273;28;20197;-77
2021/12/02 03:19:48;;;;;;;5.50;2.97;;;3.60;99.90;;;;;;5051482;28;20196;-77
2021/12/02 03:22:15;;;;;;;5.40;2.55;;;3.60;99.90;;;;;;5038237;28;20693;-77
2021/12/02 03:24:42;;;;;;;5.63;2.58;;;3.60;99.90;;;;;;5050314;28;20169;-77
2021/12/02 03:27:08;;;;;;;8.60;3.28;;;3.70;99.90;;;;;;5050075;28;20622;-77
2021/12/02 03:29:34;;;;;;;4.68;2.65;;;3.70;99.90;;;;;;5051245;28;20189;-77
2021/12/02 03:32:01;;;;;;;3.90;2.95;;;3.70;99.90;;;;;;5051285;28;20166;-77
2021/12/02 03:34:28;;;;;;;6.10;3.47;;;3.70;99.90;;;;;;5051127;28;20244;-78
2021/12/02 03:36:53;;;;;;;5.60;2.45;;;3.70;99.90;;;;;;5051117;28;20193;-77
2021/12/02 03:39:19;;;;;;;4.32;2.28;;;3.70;99.90;;;;;;5050991;28;20215;-77
2021/12/02 03:41:46;;;;;;;5.38;2.90;;;3.70;99.90;;;;;;5051010;28;20189;-77
2021/12/02 03:44:12;;;;;;;5.43;2.88;;;3.70;99.90;;;;;;5050932;28;20158;-78
2021/12/02 03:46:40;;;;;;;8.25;3.58;;;3.70;99.90;;;;;;5051010;28;20161;-78
2021/12/02 03:49:06;;;;;;;6.15;2.90;;;3.90;99.90;;;;;;5049381;28;20220;-78
2021/12/02 03:51:33;;;;;;;3.95;2.63;;;4.00;99.90;;;;;;5050858;28;20168;-78
2021/12/02 03:54:00;;;;;;;5.15;2.67;;;3.90;99.90;;;;;;5050530;28;20158;-78
2021/12/02 03:56:25;;;;;;;4.28;2.65;;;4.00;99.90;;;;;;5049291;28;20286;-78
2021/12/02 03:58:53;;;;;;;4.68;2.80;;;3.90;99.90;;;;;;5049194;28;20193;-79
2021/12/02 04:01:21;;;;;;;7.90;3.25;;;3.90;99.90;;;;;;5049471;28;20162;-77
2021/12/02 04:03:46;;;;;;;4.47;2.85;;;3.90;99.90;;;;;;5049099;28;20168;-78
2021/12/02 04:06:14;;;;;;;4.95;2.83;;;3.90;99.90;;;;;;5050467;28;20165;-78
2021/12/02 04:08:46;;;;;;;9.38;3.17;;;4.00;99.90;;;;;;5050388;28;20216;-77
2021/12/02 04:13:51;;;;;;;6.60;3.00;;;4.00;99.90;;;;;;5050563;28;20172;-78
2021/12/02 04:16:18;;;;;;;2.85;2.00;;;4.10;99.90;;;;;;5050276;28;20244;-78
2021/12/02 04:18:45;;;;;;;4.25;2.95;;;4.10;99.90;;;;;;5049036;28;20197;-78
2021/12/02 04:21:11;;;;;;;3.92;2.53;;;4.10;99.90;;;;;;5050938;28;20173;-78
2021/12/02 04:23:38;;;;;;;7.82;3.10;;;4.10;99.90;;;;;;5052006;28;20164;-78
2021/12/02 04:26:04;;;;;;;7.45;2.70;;;4.10;99.90;;;;;;5070197;28;20161;-78
2021/12/02 04:28:30;;;;;;;8.55;3.53;;;4.10;99.90;;;;;;5052073;28;20200;-77
2021/12/02 04:30:56;;;;;;;6.07;2.58;;;4.10;99.90;;;;;;5069976;28;20278;-77
2021/12/02 04:33:22;;;;;;;4.05;2.45;;;4.00;99.90;;;;;;5070013;28;20161;-77
2021/12/02 04:35:48;;;;;;;5.55;3.00;;;3.90;99.90;;;;;;5051981;28;20192;-78
2021/12/02 04:38:14;;;;;;;7.85;3.25;;;3.90;99.90;;;;;;5051932;28;20192;-78
2021/12/02 04:40:41;;;;;;;5.88;2.90;;;3.90;99.90;;;;;;5069854;28;20168;-77
2021/12/02 04:43:08;;;;;;;10.93;5.50;;;3.90;99.90;;;;;;5069758;28;20217;-77
2021/12/02 04:45:35;;;;;;;7.82;4.05;;;4.00;99.90;;;;;;5069706;28;20216;-77
2021/12/02 04:48:01;;;;;;;8.02;4.25;;;3.90;99.90;;;;;;5051735;28;20199;-78
2021/12/02 04:50:27;;;;;;;5.55;3.45;;;3.90;99.90;;;;;;5051778;28;20232;-77
2021/12/02 04:52:53;;;;;;;12.05;4.85;;;4.00;99.90;;;;;;5051606;28;20169;-77
2021/12/02 04:55:21;;;;;;;6.40;3.85;;;4.10;99.90;;;;;;5069434;28;20188;-77
2021/12/02 04:57:49;;;;;;;11.43;5.78;;;4.10;99.90;;;;;;5069277;28;20223;-77
2021/12/02 05:00:16;;;;;;;13.38;4.20;;;4.00;99.90;;;;;;5069495;28;20161;-77
2021/12/02 05:02:44;;;;;;;8.20;3.97;;;4.00;99.90;;;;;;5069440;28;20569;-77
2021/12/02 05:05:10;;;;;;;6.78;3.55;;;4.00;99.90;;;;;;5069350;28;20185;-77
2021/12/02 05:07:36;;;;;;;12.27;3.53;;;3.90;99.90;;;;;;5069388;28;20160;-77
2021/12/02 05:10:04;;;;;;;6.97;3.70;;;4.00;99.90;;;;;;5051267;28;20160;-77
2021/12/02 05:12:30;;;;;;;6.82;4.47;;;3.90;99.90;;;;;;5069210;28;20153;-77
2021/12/02 05:14:55;;;;;;;10.50;5.10;;;3.90;99.90;;;;;;5069090;28;20179;-78
2021/12/02 05:17:22;;;;;;;3.55;2.78;;;3.80;99.90;;;;;;5068904;28;20160;-78
2021/12/02 05:19:48;;;;;;;8.07;3.10;;;3.50;99.90;;;;;;5050754;28;20197;-77
2021/12/02 05:22:14;;;;;;;10.10;3.65;;;3.50;99.90;;;;;;5068676;28;20697;-77
2021/12/02 05:24:41;;;;;;;12.10;4.05;;;3.60;99.90;;;;;;5069136;28;20161;-77
2021/12/02 05:27:06;;;;;;;6.18;3.53;;;3.60;99.90;;;;;;5069112;28;20153;-77
2021/12/02 05:29:32;;;;;;;10.43;3.83;;;3.60;99.90;;;;;;5068832;28;20222;-77
2021/12/02 05:31:59;;;;;;;8.05;3.92;;;3.60;99.90;;;;;;5050953;28;20173;-77
2021/12/02 05:34:25;;;;;;;6.55;3.83;;;3.50;99.90;;;;;;5068914;28;20165;-77
2021/12/02 05:36:52;;;;;;;8.75;3.17;;;3.40;99.90;;;;;;5051036;28;20208;-76
2021/12/02 05:39:18;;;;;;;13.35;3.85;;;3.40;99.90;;;;;;5050719;28;20211;-76
2021/12/02 05:41:44;;;;;;;8.25;3.53;;;3.50;99.90;;;;;;5068588;28;20156;-75
2021/12/02 05:44:10;;;;;;;13.43;4.78;;;3.60;99.90;;;;;;5049113;28;20584;-77
2021/12/02 05:46:36;;;;;;;6.18;3.40;;;3.60;99.90;;;;;;5068730;28;20171;-76
2021/12/02 05:49:02;;;;;;;7.85;4.00;;;3.70;99.90;;;;;;5050634;28;20224;-76
2021/12/02 05:51:28;;;;;;;8.73;4.57;;;3.60;99.90;;;;;;5068613;28;20190;-76
2021/12/02 05:53:53;;;;;;;7.80;4.40;;;3.40;99.90;;;;;;5068254;28;20168;-75
2021/12/02 05:56:20;;;;;;;8.23;4.35;;;3.40;99.90;;;;;;5050769;28;20222;-76
2021/12/02 05:58:45;;;;;;;12.25;4.07;;;3.30;99.90;;;;;;5050662;28;20300;-75
2021/12/02 06:01:11;;;;;;;10.63;4.80;;;3.40;99.90;;;;;;5050585;28;20157;-76
2021/12/02 06:03:38;;;;;;;10.98;4.57;;;3.30;99.90;;;;;;5068362;28;20145;-76
2021/12/02 06:06:05;;;;;;;12.55;3.70;;;3.30;99.90;;;;;;5068603;28;20169;-76
2021/12/02 06:08:33;;;;;;;7.50;4.55;;;3.30;99.90;;;;;;5050559;28;20196;-75
2021/12/02 06:10:59;;;;;;;8.25;4.53;;;3.20;99.90;;;;;;5068002;28;20157;-76
2021/12/02 06:13:26;;;;;;;10.95;4.88;;;3.20;99.90;;;;;;5068140;28;20168;-76
2021/12/02 06:15:52;;;;;;;10.70;5.00;;;3.20;99.90;;;;;;5050184;28;20203;-76
2021/12/02 06:18:18;;;;;;;12.77;4.85;;;3.30;99.90;;;;;;5060185;28;20189;-76
2021/12/02 06:20:50;;;;;;;8.40;4.35;;;3.40;99.90;;;;;;5030663;28;20199;-76
2021/12/02 06:23:17;;;;;;;12.65;4.28;;;3.30;99.90;;;;;;5047083;28;20292;-76
2021/12/02 06:25:46;;;;;;;14.77;7.55;;;3.30;99.90;;;;;;5068222;28;20172;-77
2021/12/02 06:28:12;;;;;;;11.15;4.30;;;3.30;99.90;;;;;;5050066;28;20196;-76
2021/12/02 06:30:38;;;;;;;9.88;5.35;;;3.30;99.90;;;;;;5049927;28;20229;-76
2021/12/02 06:33:04;;;;;;;9.63;6.32;;;3.40;99.90;;;;;;5068019;28;20193;-76
2021/12/02 06:35:30;;;;;;;5.85;4.70;;;3.40;99.90;;;;;;5068344;28;20197;-76
2021/12/02 06:37:57;;;;;;;11.32;4.95;;;3.40;99.90;;;;;;5068378;28;20161;-77
2021/12/02 06:40:23;;;;;;;7.88;4.82;;;3.40;99.90;;;;;;5050394;28;20224;-76
2021/12/02 06:42:49;;;;;;;11.27;5.00;;;3.40;99.90;;;;;;5052206;28;20164;-76
2021/12/02 06:45:15;;;;;;;15.25;4.57;;;3.50;99.90;;;;;;5071883;28;20167;-76
2021/12/02 06:47:41;;;;;;;7.38;4.82;;;3.50;99.90;;;;;;5071583;28;20168;-76
2021/12/02 06:50:17;;;;;;;9.07;6.30;;;3.50;99.90;;;;;;5071855;28;20230;-77
2021/12/02 06:52:44;;;;;;;10.15;4.38;;;3.50;99.90;;;;;;5071965;28;20156;-76
2021/12/02 06:55:11;;;;;;;7.55;4.28;;;3.50;99.90;;;;;;5069922;28;20272;-76
2021/12/02 06:57:39;;;;;;;13.95;5.07;;;3.50;99.90;;;;;;5071446;28;20161;-76
2021/12/02 07:00:08;;;;;;;8.45;5.13;;;3.50;99.90;;;;;;5070405;28;20210;-76
2021/12/02 07:02:36;;;;;;;11.23;4.70;;;3.50;99.90;;;;;;5070089;28;20187;-76
2021/12/02 07:05:04;;;;;;;6.57;4.22;;;3.60;99.90;;;;;;5071487;28;20198;-76
2021/12/02 07:07:39;;;;;;;8.45;4.93;;;3.60;99.90;;;;;;5071195;28;20153;-76
2021/12/02 07:10:07;;;;;;;11.20;5.38;;;3.60;99.90;;;;;;5070058;28;20172;-77
2021/12/02 07:12:34;;;;;;;7.05;3.88;;;3.60;99.90;;;;;;5071475;28;20153;-74
2021/12/02 07:15:06;;;;;;;11.55;5.05;;;3.60;99.90;;;;;;5070279;28;20192;-73
2021/12/02 07:17:33;;;;;;;11.20;4.82;;;3.60;99.90;;;;;;5070083;28;20577;-74
2021/12/02 07:20:01;;;;;;;11.63;4.65;;;3.60;99.90;;;;;;5069856;28;20165;-76
2021/12/02 07:22:27;;;;;;;6.85;4.43;;;3.50;99.90;;;;;;5071285;28;20216;-77
2021/12/02 07:24:53;;;;;;;8.13;4.93;;;3.50;99.90;;;;;;5071244;28;20558;-77
2021/12/02 07:27:19;;;;;;;10.50;5.75;;;3.60;99.90;;;;;;5069062;28;20181;-76
2021/12/02 07:29:45;;;;;;;11.95;6.00;;;3.60;99.90;;;;;;5069441;28;20169;-76
2021/12/02 07:32:12;;;;;;;7.22;4.85;;;3.50;99.90;;;;;;5070855;28;20169;-76
2021/12/02 07:34:43;;;;;;;9.65;6.28;;;3.60;99.90;;;;;;5070768;28;20252;-76
2021/12/02 07:37:13;;;;;;;16.35;5.68;;;3.60;99.90;;;;;;5052498;28;20199;-76
2021/12/02 07:39:40;;;;;;;8.30;4.95;;;3.60;99.90;;;;;;5052786;28;20627;-76
2021/12/02 07:42:06;;;;;;;10.85;5.43;;;3.60;99.90;;;;;;5048210;28;20192;-76
2021/12/02 07:44:35;;;;;;;9.75;5.90;;;3.70;99.90;;;;;;5061097;28;20279;-76
2021/12/02 07:47:04;;;;;;;11.68;5.15;;;3.70;99.90;;;;;;5069985;28;20175;-76
2021/12/02 07:49:31;;;;;;;13.23;6.15;;;3.70;99.90;;;;;;5052390;28;20165;-76
2021/12/02 07:52:01;;;;;;;13.18;6.18;;;3.70;99.90;;;;;;5052354;28;20172;-76
2021/12/02 07:54:31;;;;;;;9.02;5.35;;;3.80;99.90;;;;;;5070308;28;20188;-77
2021/12/02 07:56:58;;;;;;;16.20;6.00;;;3.80;99.90;;;;;;5051927;28;20185;-76
2021/12/02 07:59:24;;;;;;;8.55;4.85;;;3.80;99.90;;;;;;5052322;28;20191;-76
2021/12/02 08:01:51;;;;;;;10.80;5.18;;;3.80;99.90;;;;;;5052102;28;20160;-76
2021/12/02 08:04:17;;;;;;;9.13;4.60;;;3.80;99.90;;;;;;5070099;28;20548;-76
2021/12/02 08:06:43;;;;;;;13.02;5.75;;;3.80;99.90;;;;;;5069942;28;20252;-77
2021/12/02 08:09:13;;;;;;;11.48;5.22;;;3.80;99.90;;;;;;5070015;28;20224;-75
2021/12/02 08:11:40;;;;;;;12.48;6.05;;;3.80;99.90;;;;;;5052112;28;20202;-76
2021/12/02 08:14:12;;;;;;;12.20;5.15;;;3.80;99.90;;;;;;5068754;28;20200;-76
2021/12/02 08:16:38;;;;;;;9.68;5.53;;;3.80;99.90;;;;;;5051262;28;20209;-76
2021/12/02 08:19:04;;;;;;;17.88;6.32;;;3.80;99.90;;;;;;5070585;28;20592;-76
2021/12/02 08:21:29;;;;;;;8.75;6.57;;;3.90;99.90;;;;;;5069913;28;20215;-76
2021/12/02 08:23:55;;;;;;;15.15;7.70;;;3.90;99.90;;;;;;5069942;28;20207;-75
2021/12/02 08:26:21;;;;;;;10.45;6.18;;;3.90;99.90;;;;;;5066469;28;20649;-76
2021/12/02 08:28:47;;;;;;;10.60;6.30;;;3.80;99.90;;;;;;5052156;28;20187;-76
2021/12/02 08:31:15;;;;;;;17.45;7.18;;;3.80;99.90;;;;;;5051363;28;20180;-77
2021/12/02 08:33:41;;;;;;;22.10;11.35;;;3.80;99.90;;;;;;5052326;28;20532;-76
2021/12/02 08:36:07;;;;;;;15.05;7.40;;;3.90;99.90;;;;;;5052164;28;20207;-76
2021/12/02 08:38:35;;;;;;;12.23;6.93;;;3.90;99.90;;;;;;5070077;28;20191;-76
2021/12/02 08:41:01;;;;;;;12.75;7.53;;;4.00;99.90;;;;;;5069896;28;20602;-76
2021/12/02 08:43:28;;;;;;;12.25;6.68;;;4.00;99.90;;;;;;5068824;28;20177;-76
2021/12/02 08:45:54;;;;;;;10.60;6.97;;;4.10;99.90;;;;;;5070173;28;20588;-76
2021/12/02 08:48:21;;;;;;;11.07;6.28;;;4.10;99.90;;;;;;5069614;28;20166;-77
2021/12/02 08:50:47;;;;;;;16.88;7.35;;;4.10;99.90;;;;;;5069739;28;20189;-77
2021/12/02 08:53:14;;;;;;;12.60;6.93;;;4.20;99.90;;;;;;5068285;28;20176;-76
2021/12/02 08:55:39;;;;;;;16.13;8.13;;;4.30;99.90;;;;;;5068261;28;20209;-77
2021/12/02 08:58:09;;;;;;;14.48;8.07;;;4.30;99.90;;;;;;5069497;28;20219;-76
2021/12/02 09:00:39;;;;;;;15.18;7.55;;;4.30;99.90;;;;;;5068303;28;20199;-77
2021/12/02 09:03:08;;;;;;;14.43;8.60;;;4.30;99.90;;;;;;5068181;28;20202;-76
2021/12/02 09:05:37;;;;;;;11.50;7.75;;;4.30;99.90;;;;;;5067844;28;20235;-76
2021/12/02 09:08:03;;;;;;;17.58;7.85;;;4.30;99.90;;;;;;5068012;28;20184;-76
2021/12/02 09:10:29;;;;;;;16.92;7.35;;;4.40;99.90;;;;;;5068102;28;20195;-76
2021/12/02 09:12:56;;;;;;;11.15;7.47;;;4.30;99.90;;;;;;5069084;28;20156;-77
2021/12/02 09:15:22;;;;;;;17.05;8.38;;;4.30;99.90;;;;;;5067867;28;20204;-77
2021/12/02 09:17:48;;;;;;;14.07;8.50;;;4.20;99.90;;;;;;5069131;28;20607;-76
2021/12/02 09:20:15;;;;;;;14.18;8.43;;;4.20;99.90;;;;;;5067841;28;20253;-77
2021/12/02 09:22:45;;;;;;;19.27;9.00;;;4.10;99.90;;;;;;5067372;28;20235;-76
2021/12/02 09:25:16;;;;;;;14.05;7.88;;;4.10;99.90;;;;;;5067731;28;20169;-78
2021/12/02 09:27:42;;;;;;;16.55;7.32;;;4.20;99.90;;;;;;5069322;28;20177;-78
2021/12/02 09:30:09;;;;;;;13.15;7.80;;;4.20;99.90;;;;;;5067541;28;20279;-75
2021/12/02 09:32:36;;;;;;;18.52;8.50;;;4.20;99.90;;;;;;5067631;28;20188;-78
2021/12/02 09:35:04;;;;;;;13.93;8.20;;;4.10;99.90;;;;;;5068976;28;20164;-78
2021/12/02 09:37:30;;;;;;;14.32;8.05;;;4.20;99.90;;;;;;5068897;28;20164;-78
2021/12/02 09:39:57;;;;;;;13.55;7.40;;;4.30;99.90;;;;;;5068948;28;20220;-77
2021/12/02 09:42:25;;;;;;;19.85;9.38;;;4.40;99.90;;;;;;5068940;28;20252;-75
2021/12/02 09:44:57;;;;;;;19.17;10.38;;;4.40;99.90;;;;;;5069045;28;20195;-78
2021/12/02 09:47:23;;;;;;;12.75;8.32;;;4.50;99.90;;;;;;5068927;28;20157;-77
2021/12/02 09:49:50;;;;;;;15.80;9.23;;;4.50;99.90;;;;;;5067671;28;20200;-77
2021/12/02 09:52:18;;;;;;;15.48;8.70;;;4.60;99.90;;;;;;5067653;28;20200;-78
2021/12/02 09:54:58;;;;;;;15.65;8.90;;;4.60;99.90;;;;;;5069028;28;20152;-77
2021/12/02 09:57:33;;;;;;;18.38;9.18;;;4.60;99.90;;;;;;5067468;28;20188;-77
2021/12/02 09:59:59;;;;;;;18.48;10.32;;;4.60;99.90;;;;;;5068787;28;20187;-77
2021/12/02 10:02:25;;;;;;;16.70;9.38;;;4.70;99.90;;;;;;5067424;28;20173;-77
2021/12/02 10:04:58;;;;;;;20.33;8.93;;;4.60;99.90;;;;;;5067461;28;20199;-78
2021/12/02 10:07:44;;;;;;;16.83;9.70;;;4.60;99.90;;;;;;5068810;28;20306;-77
2021/12/02 10:10:24;;;;;;;16.98;8.90;;;4.70;99.90;;;;;;5068666;28;20192;-77
2021/12/02 10:13:29;;;;;;;19.08;10.48;;;4.70;99.90;;;;;;5068723;28;20167;-77
2021/12/02 10:16:36;;;;;;;27.58;8.73;;;4.70;99.90;;;;;;5068520;28;20180;-77
2021/12/02 10:19:09;;;;;;;15.15;9.10;;;4.80;99.90;;;;;;5058134;28;20204;-77
2021/12/02 10:24:11;;;;;;;18.10;9.57;;;4.80;99.90;;;;;;5072624;28;20206;-77
2021/12/02 10:26:53;;;;;;;14.23;9.25;;;4.90;99.90;;;;;;5071272;28;20167;-77
2021/12/02 10:29:28;;;;;;;19.48;9.05;;;4.80;99.90;;;;;;5071213;28;20203;-77
2021/12/02 10:32:16;;;;;;;19.58;8.95;;;4.90;99.90;;;;;;5071161;28;20164;-77
2021/12/02 10:35:01;;;;;;;15.68;9.32;;;4.90;99.90;;;;;;5071237;28;20243;-77
2021/12/02 10:37:31;;;;;;;18.58;10.00;;;4.90;99.90;;;;;;5070960;28;20168;-77
2021/12/02 10:40:02;;;;;;;20.45;9.70;;;4.90;99.90;;;;;;5071057;28;20212;-77
2021/12/02 10:42:30;;;;;;;15.75;8.70;;;4.90;99.90;;;;;;5070952;28;20160;-77
2021/12/02 10:45:00;;;;;;;16.98;9.50;;;4.80;99.90;;;;;;5070864;28;20168;-76
2021/12/02 10:47:28;;;;;;;16.95;10.45;;;4.70;99.90;;;;;;5072214;28;20164;-76
2021/12/02 10:50:00;;;;;;;19.27;10.10;;;4.70;99.90;;;;;;5071935;28;20255;-76
2021/12/02 10:52:31;;;;;;;18.50;10.57;;;4.70;99.90;;;;;;5072156;28;20613;-76
2021/12/02 10:55:07;;;;;;;23.17;10.20;;;4.80;99.90;;;;;;5072241;28;20205;-76
2021/12/02 10:57:36;;;;;;;23.30;11.30;;;4.80;99.90;;;;;;5072063;28;20179;-76
2021/12/02 11:00:14;;;;;;;24.80;12.18;;;4.80;99.90;;;;;;5070531;28;20196;-77
2021/12/02 11:02:48;;;;;;;27.40;12.23;;;4.80;99.90;;;;;;5071934;28;20157;-76
2021/12/02 11:05:20;;;;;;;17.27;10.52;;;4.80;99.90;;;;;;5071900;28;20167;-77
2021/12/02 11:07:58;;;;;;;23.25;10.95;;;4.70;99.90;;;;;;5071562;28;20156;-77
2021/12/02 11:10:26;;;;;;;22.75;10.88;;;4.70;99.90;;;;;;5070202;28;20216;-77
2021/12/02 11:12:55;;;;;;;15.98;9.93;;;4.70;99.90;;;;;;5070489;28;20255;-77
2021/12/02 11:15:25;;;;;;;17.92;12.30;;;4.70;99.90;;;;;;5071463;28;20153;-77
2021/12/02 11:17:54;;;;;;;19.63;11.30;;;4.80;99.90;;;;;;5071631;28;20164;-77
2021/12/02 11:20:26;;;;;;;22.15;10.32;;;4.80;99.90;;;;;;5070095;28;20275;-78
2021/12/02 11:23:07;;;;;;;21.10;11.85;;;4.80;99.90;;;;;;5071262;28;20231;-76
2021/12/02 11:25:39;;;;;;;25.58;12.55;;;4.90;99.90;;;;;;5069841;28;20199;-76
2021/12/02 11:28:08;;;;;;;17.23;9.55;;;4.90;99.90;;;;;;5069580;28;20199;-77
2021/12/02 11:30:37;;;;;;;20.25;10.85;;;4.90;99.90;;;;;;5071189;28;20185;-76
2021/12/02 11:33:09;;;;;;;23.77;10.85;;;4.80;99.90;;;;;;5069836;28;20173;-77
2021/12/02 11:35:44;;;;;;;18.77;10.75;;;4.80;99.90;;;;;;5071285;28;20184;-77
2021/12/02 11:38:14;;;;;;;14.32;9.48;;;4.80;99.90;;;;;;5069887;28;20169;-78
2021/12/02 11:40:45;;;;;;;16.10;9.55;;;4.80;99.90;;;;;;5071176;28;20243;-77
2021/12/02 11:43:13;;;;;;;17.75;10.73;;;4.90;99.90;;;;;;5069986;28;20207;-77
2021/12/02 11:45:44;;;;;;;19.15;11.02;;;4.80;99.90;;;;;;5069762;28;20172;-77
2021/12/02 11:48:12;;;;;;;20.75;10.43;;;4.80;99.90;;;;;;5071013;28;20164;-76
2021/12/02 11:50:38;;;;;;;25.05;10.38;;;4.80;99.90;;;;;;5069729;28;20196;-77
2021/12/02 11:53:04;;;;;;;19.90;10.63;;;4.80;99.90;;;;;;5070682;28;20221;-77
2021/12/02 11:55:38;;;;;;;17.33;9.68;;;4.90;99.90;;;;;;5069404;28;20192;-77
2021/12/02 11:58:04;;;;;;;15.20;9.02;;;5.00;99.90;;;;;;5069257;28;20169;-76
2021/12/02 12:00:31;;;;;;;17.83;10.38;;;4.90;99.90;;;;;;5069575;28;20200;-77
2021/12/02 12:03:08;;;;;;;19.45;8.98;;;5.00;99.90;;;;;;5069472;28;20164;-77
2021/12/02 12:05:54;;;;;;;13.25;8.13;;;5.00;99.90;;;;;;5069505;28;20218;-76
2021/12/02 12:08:34;;;;;;;15.77;9.73;;;5.10;99.90;;;;;;5069894;28;20183;-76
2021/12/02 12:11:20;;;;;;;17.75;8.77;;;5.10;99.90;;;;;;5063289;28;20261;-76
2021/12/02 12:13:53;;;;;;;14.43;7.80;;;5.20;99.90;;;;;;5052253;28;20176;-77
2021/12/02 12:16:28;;;;;;;13.60;7.22;;;5.20;99.90;;;;;;5067335;28;20189;-76
2021/12/02 12:18:57;;;;;;;12.50;7.55;;;5.20;99.90;;;;;;5051356;28;20243;-77
2021/12/02 12:21:38;;;;;;;9.40;7.00;;;5.20;99.90;;;;;;5069917;28;20227;-77
2021/12/02 12:24:04;;;;;;;10.85;6.85;;;5.20;99.90;;;;;;5070156;28;20199;-77
2021/12/02 12:26:40;;;;;;;13.80;7.30;;;5.10;99.90;;;;;;5070111;28;20255;-76
2021/12/02 12:29:09;;;;;;;7.82;5.47;;;5.10;99.90;;;;;;5069942;28;20187;-76
2021/12/02 12:32:15;;;;;;;11.15;5.78;;;5.10;99.90;;;;;;5069743;28;20224;-77
2021/12/02 12:37:02;;;;;;;4.20;2.72;;;5.00;99.90;;;;;;5070267;28;20264;-77
2021/12/02 12:39:33;;;;;;;1.60;1.30;;;5.00;99.90;;;;;;5069222;28;20184;-76
2021/12/02 12:42:17;;;;;;;1.98;1.45;;;5.00;99.90;;;;;;5069907;28;20164;-76
2021/12/02 12:44:54;;;;;;;2.88;1.60;;;4.90;99.90;;;;;;5051460;28;20168;-76
2021/12/02 12:47:41;;;;;;;4.75;2.58;;;4.90;99.90;;;;;;5050137;28;20180;-76
2021/12/02 12:50:34;;;;;;;3.90;2.55;;;4.80;99.90;;;;;;5053531;28;20188;-76
2021/12/02 12:53:03;;;;;;;3.38;2.03;;;4.80;99.90;;;;;;5069605;28;20184;-75
2021/12/02 12:55:37;;;;;;;2.80;1.65;;;4.80;99.90;;;;;;5069441;28;20206;-75
2021/12/02 12:58:12;;;;;;;2.20;1.80;;;4.80;99.90;;;;;;5069669;28;20157;-75
2021/12/02 13:00:42;;;;;;;2.03;1.27;;;4.90;99.90;;;;;;5069370;28;20202;-76
2021/12/02 13:03:14;;;;;;;2.97;1.23;;;4.70;99.90;;;;;;5069248;28;20145;-75
2021/12/02 13:05:58;;;;;;;1.55;1.45;;;4.70;99.90;;;;;;5058687;28;20180;-75
2021/12/02 13:08:35;;;;;;;4.47;1.20;;;4.70;99.90;;;;;;5069628;28;20196;-76
2021/12/02 13:11:10;;;;;;;2.05;1.10;;;4.60;99.90;;;;;;5069418;28;20565;-76
2021/12/02 13:13:38;;;;;;;5.45;1.20;;;4.60;99.90;;;;;;5069517;28;20160;-75
2021/12/02 13:16:19;;;;;;;2.97;1.13;;;4.70;99.90;;;;;;5068723;28;20604;-78
2021/12/02 13:18:50;;;;;;;1.95;1.23;;;4.70;99.90;;;;;;5067322;28;20186;-77
2021/12/02 13:21:31;;;;;;;3.28;1.63;;;4.60;99.90;;;;;;5068957;28;20189;-78
2021/12/02 13:24:05;;;;;;;3.58;1.85;;;4.60;99.90;;;;;;5051213;28;20169;-78
2021/12/02 13:26:46;;;;;;;1.70;1.40;;;4.50;99.90;;;;;;5051067;28;20175;-77